Time;durP1;ratioP1;P1;durP2;ratioP2;P2;SDS_P1;SDS_P2;PMS_P1;PMS_P2;Temp;Humidity;BMP_temperature;BMP_pressure;BME280_temperature;BME280_humidity;BME280_pressure;Samples;Min_cycle;Max_cycle;Signal;HPM_P1;HPM_P2
2024/03/20 00:00:40;;;;;;;3.55;3.05;;;13.00;79.50;;;;;;10299170;28;20244;-64
2024/03/20 00:05:42;;;;;;;6.15;3.20;;;13.00;79.50;;;;;;10295532;28;20228;-66
2024/03/20 00:10:46;;;;;;;4.00;3.17;;;12.90;79.50;;;;;;10295598;28;20297;-65
2024/03/20 00:15:49;;;;;;;5.97;3.20;;;12.90;79.60;;;;;;10301161;28;20228;-65
2024/03/20 00:20:51;;;;;;;7.28;3.45;;;12.90;79.60;;;;;;10297903;28;21133;-65
2024/03/20 00:25:55;;;;;;;4.03;3.15;;;12.90;79.80;;;;;;10296313;28;20334;-65
2024/03/20 00:30:58;;;;;;;6.80;4.47;;;12.80;79.60;;;;;;10293442;28;20278;-65
2024/03/20 00:36:00;;;;;;;5.82;4.10;;;12.80;79.80;;;;;;10296185;28;20243;-64
2024/03/20 00:41:04;;;;;;;6.28;3.88;;;12.80;79.80;;;;;;10296998;28;20227;-65
2024/03/20 00:46:07;;;;;;;5.40;3.78;;;12.70;80.60;;;;;;10295370;28;20382;-64
2024/03/20 00:51:10;;;;;;;5.95;4.00;;;12.70;80.10;;;;;;10290336;28;20229;-64
2024/03/20 00:56:14;;;;;;;7.00;3.92;;;12.60;80.10;;;;;;10291254;28;20291;-64
2024/03/20 01:01:16;;;;;;;5.95;3.97;;;12.50;80.00;;;;;;10296237;28;20298;-64
2024/03/20 01:06:19;;;;;;;4.75;3.67;;;12.60;80.30;;;;;;10295900;28;20209;-64
2024/03/20 01:11:23;;;;;;;5.15;3.58;;;12.50;80.20;;;;;;10295614;28;20232;-66
2024/03/20 01:16:28;;;;;;;5.47;3.63;;;12.60;80.50;;;;;;10293641;28;20239;-66
2024/03/20 01:21:31;;;;;;;6.38;3.63;;;12.60;80.20;;;;;;10290081;28;20274;-66
2024/03/20 01:26:35;;;;;;;4.68;3.50;;;12.50;80.20;;;;;;10294823;28;20216;-64
2024/03/20 01:31:37;;;;;;;6.55;4.05;;;12.50;80.60;;;;;;10285581;28;20232;-64
2024/03/20 01:36:40;;;;;;;5.30;3.80;;;12.40;80.30;;;;;;10286805;28;20204;-64
2024/03/20 01:41:45;;;;;;;5.70;3.40;;;12.40;80.50;;;;;;10290276;28;20306;-65
2024/03/20 01:46:47;;;;;;;3.67;3.35;;;12.40;80.80;;;;;;10289853;28;20314;-64
2024/03/20 01:51:51;;;;;;;8.57;4.60;;;12.30;80.70;;;;;;10292934;28;20221;-64
2024/03/20 01:56:55;;;;;;;7.10;4.20;;;12.30;80.70;;;;;;10289404;28;20286;-65
2024/03/20 02:01:58;;;;;;;7.25;3.85;;;12.30;80.80;;;;;;10294135;28;20314;-65
2024/03/20 02:07:00;;;;;;;5.72;3.92;;;12.20;80.70;;;;;;10272751;28;20216;-64
2024/03/20 02:12:05;;;;;;;6.35;3.80;;;12.20;80.70;;;;;;10290727;28;20229;-65
2024/03/20 02:17:07;;;;;;;6.47;3.55;;;12.20;81.00;;;;;;10295495;28;20208;-65
2024/03/20 02:22:11;;;;;;;5.50;4.15;;;12.20;81.20;;;;;;10288493;28;20236;-65
2024/03/20 02:27:14;;;;;;;4.60;3.92;;;12.10;81.00;;;;;;10294795;28;20739;-64
2024/03/20 02:32:16;;;;;;;5.22;3.42;;;12.10;81.10;;;;;;10299730;28;20225;-64
2024/03/20 02:37:20;;;;;;;6.25;3.90;;;12.00;81.20;;;;;;10296385;28;20243;-65
2024/03/20 02:42:23;;;;;;;5.18;3.65;;;12.00;81.10;;;;;;10298623;28;21905;-65
2024/03/20 02:47:26;;;;;;;6.15;4.10;;;11.90;81.30;;;;;;10294469;28;20820;-64
2024/03/20 02:52:30;;;;;;;5.95;3.75;;;11.90;81.40;;;;;;10311452;28;20236;-64
2024/03/20 02:57:32;;;;;;;4.78;3.58;;;11.90;81.60;;;;;;10292423;28;20290;-64
2024/03/20 03:02:35;;;;;;;4.82;3.95;;;11.90;81.50;;;;;;10295080;28;20334;-66
2024/03/20 03:07:39;;;;;;;6.45;3.92;;;11.80;81.70;;;;;;10293499;28;20209;-64
2024/03/20 03:12:41;;;;;;;6.40;4.13;;;11.70;81.80;;;;;;10295982;28;20216;-64
2024/03/20 03:17:47;;;;;;;7.22;4.15;;;11.80;81.70;;;;;;10298375;28;20216;-65
2024/03/20 03:22:51;;;;;;;5.57;4.22;;;11.80;81.90;;;;;;10294155;28;20224;-65
2024/03/20 03:27:54;;;;;;;5.75;4.10;;;11.80;81.90;;;;;;10295579;28;21483;-64
2024/03/20 03:32:57;;;;;;;8.73;4.40;;;11.80;81.80;;;;;;10294853;28;20280;-64
2024/03/20 03:38:00;;;;;;;5.70;4.20;;;11.80;81.90;;;;;;10288317;28;20294;-65
2024/03/20 03:43:03;;;;;;;6.00;4.30;;;11.80;82.30;;;;;;10295487;28;20263;-62
2024/03/20 03:48:07;;;;;;;5.82;4.22;;;11.70;82.10;;;;;;10295232;28;20217;-64
2024/03/20 03:53:11;;;;;;;7.35;4.55;;;11.70;82.20;;;;;;10294208;28;20259;-63
2024/03/20 03:58:14;;;;;;;6.15;4.10;;;11.60;82.00;;;;;;10296150;28;20204;-63
2024/03/20 04:03:16;;;;;;;5.22;4.20;;;11.60;82.40;;;;;;10297652;28;20224;-66
2024/03/20 04:08:20;;;;;;;6.97;4.78;;;11.50;82.20;;;;;;10295605;28;20300;-67
2024/03/20 04:13:23;;;;;;;8.15;4.55;;;11.50;82.50;;;;;;10299344;28;20306;-65
2024/03/20 04:18:25;;;;;;;5.72;4.38;;;11.50;82.40;;;;;;10294401;28;20275;-64
2024/03/20 04:23:29;;;;;;;6.75;4.72;;;11.50;82.70;;;;;;10297305;28;21479;-64
2024/03/20 04:28:32;;;;;;;5.03;4.15;;;11.50;82.80;;;;;;10315650;28;20611;-64
2024/03/20 04:33:35;;;;;;;6.65;4.07;;;11.40;82.60;;;;;;10295203;28;20317;-65
2024/03/20 04:38:39;;;;;;;8.07;4.45;;;11.40;82.90;;;;;;10296443;28;20266;-66
2024/03/20 04:43:43;;;;;;;7.80;4.85;;;11.30;82.80;;;;;;10297987;28;20306;-64
2024/03/20 04:48:46;;;;;;;7.22;4.60;;;11.30;82.60;;;;;;10294686;28;20213;-64
2024/03/20 04:53:51;;;;;;;5.20;4.35;;;11.20;82.80;;;;;;10294335;28;21261;-64
2024/03/20 04:58:54;;;;;;;5.35;4.55;;;11.10;83.00;;;;;;10301326;28;20212;-66
2024/03/20 05:03:57;;;;;;;9.75;4.95;;;11.10;83.00;;;;;;10294281;28;20236;-65
2024/03/20 05:09:01;;;;;;;8.52;4.88;;;11.10;83.30;;;;;;10289346;28;20283;-64
2024/03/20 05:14:03;;;;;;;7.00;5.30;;;11.00;82.90;;;;;;10296101;28;20287;-64
2024/03/20 05:19:07;;;;;;;6.93;4.68;;;11.00;83.00;;;;;;10295290;28;20213;-66
2024/03/20 05:24:11;;;;;;;6.57;5.18;;;11.00;83.40;;;;;;10299455;28;21525;-65
2024/03/20 05:29:14;;;;;;;6.30;4.82;;;11.00;83.20;;;;;;10296791;28;20321;-66
2024/03/20 05:34:16;;;;;;;6.50;4.82;;;11.10;83.40;;;;;;10297811;28;20236;-64
2024/03/20 05:39:23;;;;;;;8.63;5.35;;;11.00;83.40;;;;;;10298868;28;20302;-64
2024/03/20 05:44:26;;;;;;;8.05;4.75;;;11.00;83.50;;;;;;10296757;28;20227;-65
2024/03/20 05:49:28;;;;;;;7.30;5.13;;;11.00;83.80;;;;;;10299171;28;20221;-63
2024/03/20 05:54:32;;;;;;;9.68;5.47;;;11.00;83.70;;;;;;10296488;28;20662;-64
2024/03/20 05:59:35;;;;;;;6.50;5.18;;;11.10;84.50;;;;;;10298949;28;20216;-65
2024/03/20 06:04:37;;;;;;;7.63;5.30;;;11.10;83.70;;;;;;10303037;28;20235;-64
2024/03/20 06:09:41;;;;;;;7.63;5.40;;;11.10;83.60;;;;;;10307900;28;20208;-64
2024/03/20 06:14:44;;;;;;;6.95;5.32;;;11.20;83.70;;;;;;10306417;28;20334;-65
2024/03/20 06:19:47;;;;;;;7.30;6.05;;;11.20;83.90;;;;;;10306787;28;20201;-64
2024/03/20 06:24:51;;;;;;;9.25;5.53;;;11.20;83.90;;;;;;10307813;28;20279;-64
2024/03/20 06:29:58;;;;;;;8.02;6.10;;;11.30;83.90;;;;;;10301070;28;20204;-64
2024/03/20 06:35:01;;;;;;;9.70;7.20;;;11.40;83.80;;;;;;10300393;28;21036;-65
2024/03/20 06:40:07;;;;;;;7.35;6.20;;;11.50;87.30;;;;;;10305824;28;20342;-65
2024/03/20 06:45:10;;;;;;;7.07;5.70;;;11.60;85.20;;;;;;10331275;28;20239;-67
2024/03/20 06:50:13;;;;;;;9.77;6.15;;;11.70;84.80;;;;;;10367627;28;20322;-68
2024/03/20 06:55:17;;;;;;;8.10;6.32;;;11.70;84.50;;;;;;10362428;28;20365;-67
2024/03/20 07:00:21;;;;;;;10.32;5.85;;;11.80;84.50;;;;;;10363221;28;20294;-66
2024/03/20 07:05:23;;;;;;;9.93;6.30;;;11.90;84.50;;;;;;10384532;28;20247;-67
2024/03/20 07:10:27;;;;;;;9.70;6.68;;;12.00;84.60;;;;;;10384290;28;20258;-65
2024/03/20 07:15:30;;;;;;;10.38;7.38;;;12.00;85.60;;;;;;10327148;28;20292;-68
2024/03/20 07:20:33;;;;;;;10.02;7.18;;;12.10;84.90;;;;;;10307130;28;20216;-68
2024/03/20 07:25:37;;;;;;;10.68;6.72;;;12.20;84.80;;;;;;10302003;28;20227;-66
2024/03/20 07:30:40;;;;;;;10.00;7.28;;;12.40;84.90;;;;;;10299853;28;20208;-67
2024/03/20 07:35:46;;;;;;;9.75;7.68;;;12.50;84.80;;;;;;10298390;28;20224;-67
2024/03/20 07:40:53;;;;;;;12.32;8.77;;;12.60;84.80;;;;;;10298966;28;20830;-69
2024/03/20 07:45:56;;;;;;;11.95;6.97;;;12.70;84.70;;;;;;10304172;28;20236;-69
2024/03/20 07:51:00;;;;;;;12.15;6.72;;;12.90;84.70;;;;;;10301839;28;20213;-70
2024/03/20 07:56:05;;;;;;;9.95;7.40;;;13.00;84.60;;;;;;10298058;28;21728;-69
2024/03/20 08:01:11;;;;;;;11.43;6.78;;;13.20;84.50;;;;;;10303994;28;21766;-69
2024/03/20 08:06:14;;;;;;;12.55;6.95;;;13.30;84.30;;;;;;10356853;28;20268;-66
2024/03/20 08:11:18;;;;;;;7.68;5.20;;;13.50;84.40;;;;;;10396546;28;20276;-67
2024/03/20 08:16:20;;;;;;;9.48;5.07;;;13.60;84.40;;;;;;10380330;28;20270;-66
2024/03/20 08:21:23;;;;;;;7.47;4.60;;;13.70;85.20;;;;;;10386584;28;20232;-65
2024/03/20 08:26:28;;;;;;;8.88;5.10;;;13.80;85.20;;;;;;10369435;28;20275;-64
2024/03/20 08:31:31;;;;;;;9.13;5.55;;;13.90;84.40;;;;;;10374540;28;20291;-68
2024/03/20 08:36:33;;;;;;;12.68;5.40;;;14.00;84.40;;;;;;10379275;28;20262;-64
2024/03/20 08:41:37;;;;;;;9.32;5.18;;;14.10;84.30;;;;;;10367728;28;20224;-66
2024/03/20 08:46:41;;;;;;;7.63;5.45;;;14.20;85.10;;;;;;10381641;28;20265;-66
2024/03/20 08:51:44;;;;;;;8.13;5.45;;;14.30;84.30;;;;;;10374858;28;20282;-67
2024/03/20 08:56:48;;;;;;;8.82;4.88;;;14.50;84.50;;;;;;10366364;28;20208;-66
2024/03/20 09:01:51;;;;;;;6.75;4.53;;;14.60;85.10;;;;;;10367523;28;20678;-70
2024/03/20 09:06:55;;;;;;;5.43;4.88;;;14.70;84.30;;;;;;10363086;28;20302;-66
2024/03/20 09:11:59;;;;;;;6.65;5.18;;;14.70;84.30;;;;;;10367303;28;20290;-69
2024/03/20 09:17:02;;;;;;;8.32;4.97;;;14.80;84.30;;;;;;10367294;28;20232;-67
2024/03/20 09:22:05;;;;;;;5.95;4.72;;;14.90;84.30;;;;;;10368956;28;20309;-66
2024/03/20 09:27:09;;;;;;;8.05;4.63;;;15.10;84.30;;;;;;10366807;28;20745;-67
2024/03/20 09:32:12;;;;;;;8.60;5.57;;;15.20;84.30;;;;;;10367916;28;20283;-69
2024/03/20 09:37:17;;;;;;;8.80;4.93;;;15.30;84.40;;;;;;10351198;28;21015;-69
2024/03/20 09:42:22;;;;;;;11.93;5.10;;;15.40;84.30;;;;;;10339499;28;20290;-65
2024/03/20 09:47:25;;;;;;;7.40;4.72;;;15.50;84.20;;;;;;10385020;28;20213;-66
2024/03/20 09:52:29;;;;;;;12.27;9.63;;;15.60;85.20;;;;;;10377835;28;20712;-66
2024/03/20 09:57:34;;;;;;;7.45;5.22;;;15.80;84.30;;;;;;10346636;28;21332;-68
2024/03/20 10:02:36;;;;;;;6.50;4.90;;;15.90;84.10;;;;;;10315863;28;20674;-69
2024/03/20 10:07:39;;;;;;;7.10;5.03;;;16.00;84.20;;;;;;10315492;28;21430;-70
2024/03/20 10:12:46;;;;;;;7.75;4.70;;;16.20;84.20;;;;;;10334434;28;21015;-67
2024/03/20 10:17:49;;;;;;;6.97;4.93;;;16.30;84.10;;;;;;10331801;28;20220;-67
2024/03/20 10:22:51;;;;;;;8.02;4.55;;;16.40;84.00;;;;;;10339590;28;20360;-69
2024/03/20 10:27:57;;;;;;;6.18;4.15;;;16.50;83.90;;;;;;10311335;28;20551;-66
2024/03/20 10:33:01;;;;;;;6.60;4.55;;;16.60;83.70;;;;;;10311580;28;20305;-71
2024/03/20 10:38:05;;;;;;;8.13;4.45;;;16.80;84.20;;;;;;10314468;28;21315;-74
2024/03/20 10:43:13;;;;;;;6.53;4.05;;;17.00;83.60;;;;;;10337545;28;20235;-71
2024/03/20 10:48:17;;;;;;;8.88;4.72;;;17.10;83.40;;;;;;10321207;28;21398;-72
2024/03/20 10:53:23;;;;;;;7.63;4.50;;;17.20;83.40;;;;;;10322188;28;20228;-72
2024/03/20 10:58:28;;;;;;;8.73;4.30;;;17.40;83.40;;;;;;10324246;28;20212;-71
2024/03/20 11:03:47;;;;;;;6.28;3.85;;;17.50;83.00;;;;;;10325214;28;20260;-70
2024/03/20 11:08:54;;;;;;;6.70;4.55;;;17.70;82.70;;;;;;10336145;28;20204;-71
2024/03/20 11:14:01;;;;;;;7.00;4.20;;;17.80;82.40;;;;;;10344036;28;20742;-71
2024/03/20 11:19:06;;;;;;;7.00;4.10;;;18.00;82.70;;;;;;10307329;28;20259;-67
2024/03/20 11:24:13;;;;;;;4.25;3.83;;;18.20;82.10;;;;;;10304099;28;20651;-66
2024/03/20 11:29:17;;;;;;;5.47;3.50;;;18.30;81.30;;;;;;10304157;28;20205;-68
2024/03/20 11:34:19;;;;;;;5.95;3.30;;;18.50;81.10;;;;;;10344449;28;20232;-67
2024/03/20 11:39:23;;;;;;;6.47;4.00;;;18.60;80.60;;;;;;10332116;28;20269;-65
2024/03/20 11:44:27;;;;;;;5.35;3.00;;;18.70;81.30;;;;;;10332945;28;20236;-70
2024/03/20 11:49:31;;;;;;;5.95;4.18;;;18.90;81.00;;;;;;10316260;28;20231;-68
2024/03/20 11:54:34;;;;;;;4.15;3.28;;;19.00;79.70;;;;;;10303580;28;20278;-68
2024/03/20 11:59:38;;;;;;;4.85;3.42;;;19.20;80.40;;;;;;10298339;28;20961;-65
2024/03/20 12:04:43;;;;;;;4.85;3.35;;;19.40;79.20;;;;;;10307051;28;20236;-71
2024/03/20 12:09:45;;;;;;;3.85;2.90;;;19.60;79.50;;;;;;10305028;28;20204;-71
2024/03/20 12:14:51;;;;;;;4.22;2.78;;;19.80;79.40;;;;;;10308569;28;20220;-69
2024/03/20 12:19:54;;;;;;;3.90;2.95;;;19.90;78.70;;;;;;10311457;28;20208;-70
2024/03/20 12:24:57;;;;;;;5.55;3.40;;;19.80;78.70;;;;;;10319027;28;20788;-67
2024/03/20 12:30:01;;;;;;;5.18;3.13;;;19.80;79.20;;;;;;10313430;28;20216;-74
2024/03/20 12:35:04;;;;;;;3.70;3.13;;;19.90;78.40;;;;;;10327459;28;20228;-73
2024/03/20 12:40:13;;;;;;;4.97;3.30;;;20.00;78.70;;;;;;10321584;28;20698;-71
2024/03/20 12:45:17;;;;;;;4.68;3.40;;;19.80;77.50;;;;;;10308735;28;20286;-71
2024/03/20 12:50:20;;;;;;;5.85;4.13;;;19.90;77.90;;;;;;10320296;28;20214;-69
2024/03/20 12:55:23;;;;;;;4.25;3.72;;;19.70;76.40;;;;;;10313644;28;20879;-74
2024/03/20 13:00:27;;;;;;;5.47;3.78;;;19.60;76.60;;;;;;10308158;28;20204;-70
2024/03/20 13:05:30;;;;;;;4.88;3.95;;;20.10;76.80;;;;;;10324727;28;20286;-68
2024/03/20 13:10:33;;;;;;;4.78;3.63;;;20.50;76.60;;;;;;10340964;28;20274;-70
2024/03/20 13:15:40;;;;;;;4.80;3.55;;;20.60;76.40;;;;;;10304203;28;21589;-68
2024/03/20 13:20:42;;;;;;;5.20;4.18;;;21.10;75.80;;;;;;10328846;28;20200;-68
2024/03/20 13:25:47;;;;;;;5.05;3.80;;;21.60;75.20;;;;;;10346461;28;20241;-67
2024/03/20 13:30:53;;;;;;;5.57;4.07;;;21.80;75.20;;;;;;10340007;28;20336;-68
2024/03/20 13:35:57;;;;;;;6.22;4.00;;;22.10;74.20;;;;;;10350097;28;20724;-67
2024/03/20 13:41:12;;;;;;;6.43;4.32;;;22.40;73.90;;;;;;10370485;28;20232;-66
2024/03/20 13:46:15;;;;;;;5.93;4.22;;;22.60;73.40;;;;;;10363624;28;21134;-70
2024/03/20 13:51:20;;;;;;;4.57;3.78;;;22.70;71.20;;;;;;10359498;28;20960;-67
2024/03/20 13:56:22;;;;;;;4.68;3.95;;;22.60;71.00;;;;;;10352550;28;20402;-68
2024/03/20 14:01:27;;;;;;;5.18;3.80;;;22.80;71.50;;;;;;10360571;28;20660;-67
2024/03/20 14:06:30;;;;;;;4.28;3.50;;;22.80;69.70;;;;;;10358777;28;20431;-66
2024/03/20 14:11:33;;;;;;;5.72;2.97;;;22.20;71.10;;;;;;10373463;28;20252;-67
2024/03/20 14:16:37;;;;;;;3.65;3.10;;;22.40;72.00;;;;;;10375782;28;20548;-66
2024/03/20 14:21:40;;;;;;;5.90;3.97;;;22.80;70.60;;;;;;10379007;28;20252;-66
2024/03/20 14:26:42;;;;;;;5.20;3.20;;;23.00;69.70;;;;;;10375618;28;20302;-66
2024/03/20 14:31:46;;;;;;;4.32;3.60;;;23.20;69.80;;;;;;10369033;28;20370;-68
2024/03/20 14:36:49;;;;;;;4.40;3.30;;;23.40;68.70;;;;;;10378486;28;20255;-66
2024/03/20 14:41:52;;;;;;;5.63;3.30;;;23.30;68.60;;;;;;10372500;28;20267;-64
2024/03/20 14:46:56;;;;;;;5.88;3.30;;;23.20;68.30;;;;;;10359927;28;20322;-72
2024/03/20 14:51:59;;;;;;;7.05;3.30;;;23.20;68.10;;;;;;10395471;28;20233;-65
2024/03/20 14:57:01;;;;;;;5.70;3.58;;;23.00;67.20;;;;;;10372160;28;20201;-65
2024/03/20 15:02:15;;;;;;;8.35;3.40;;;22.70;66.30;;;;;;10389940;28;20228;-65
2024/03/20 15:07:18;;;;;;;4.35;2.95;;;22.50;66.50;;;;;;10372174;28;20243;-64
2024/03/20 15:12:20;;;;;;;3.75;2.83;;;22.50;66.20;;;;;;10376980;28;20229;-66
2024/03/20 15:17:24;;;;;;;4.13;2.65;;;22.40;65.60;;;;;;10377577;28;20254;-65
2024/03/20 15:22:28;;;;;;;3.45;2.30;;;22.30;65.40;;;;;;10379312;28;20594;-64
2024/03/20 15:27:30;;;;;;;4.38;2.50;;;22.20;64.60;;;;;;10361894;28;20588;-65
2024/03/20 15:32:36;;;;;;;4.18;2.80;;;21.90;65.70;;;;;;10373578;28;20286;-65
2024/03/20 15:37:38;;;;;;;4.18;2.88;;;21.80;66.00;;;;;;10390742;28;20196;-65
2024/03/20 15:42:42;;;;;;;2.85;2.30;;;21.70;66.00;;;;;;10383977;28;20240;-65
2024/03/20 15:47:45;;;;;;;3.47;2.38;;;21.50;65.40;;;;;;10367133;28;20209;-65
2024/03/20 15:52:48;;;;;;;3.40;2.30;;;21.40;65.80;;;;;;10372545;28;20225;-64
2024/03/20 15:57:51;;;;;;;3.58;2.80;;;21.40;65.80;;;;;;10369686;28;20251;-65
2024/03/20 16:02:54;;;;;;;4.90;3.08;;;21.20;65.00;;;;;;10375831;28;20229;-65
2024/03/20 16:07:57;;;;;;;5.38;2.95;;;21.10;65.70;;;;;;10369635;28;20220;-64
2024/03/20 16:13:00;;;;;;;5.38;3.10;;;20.90;65.40;;;;;;10368497;28;20278;-66
2024/03/20 16:18:07;;;;;;;5.53;3.00;;;20.80;65.60;;;;;;10370940;28;20749;-66
2024/03/20 16:23:10;;;;;;;4.18;2.92;;;20.70;65.40;;;;;;10371307;28;20314;-66
2024/03/20 16:28:12;;;;;;;4.20;3.13;;;20.50;66.20;;;;;;10374638;28;20240;-65
2024/03/20 16:33:16;;;;;;;5.75;3.08;;;20.40;66.40;;;;;;10376697;28;20771;-67
2024/03/20 16:38:19;;;;;;;4.07;2.72;;;20.30;66.20;;;;;;10375158;28;20236;-67
2024/03/20 16:43:24;;;;;;;4.25;3.00;;;20.10;66.00;;;;;;10369279;28;20318;-65
2024/03/20 16:48:29;;;;;;;5.22;2.65;;;20.00;66.60;;;;;;10368396;28;20266;-66
2024/03/20 16:53:31;;;;;;;4.35;3.10;;;19.90;66.60;;;;;;10366601;28;20257;-68
2024/03/20 16:58:34;;;;;;;6.35;2.95;;;19.80;67.00;;;;;;10306122;28;20212;-66
2024/03/20 17:03:38;;;;;;;5.13;3.00;;;19.70;67.00;;;;;;10302394;28;20963;-65
2024/03/20 17:08:40;;;;;;;4.85;3.03;;;19.60;66.60;;;;;;10301385;28;21023;-66
2024/03/20 17:13:43;;;;;;;3.83;2.78;;;19.50;67.70;;;;;;10296888;28;20232;-65
2024/03/20 17:18:47;;;;;;;4.85;3.00;;;19.40;66.90;;;;;;10299845;28;20631;-65
2024/03/20 17:23:49;;;;;;;3.78;2.80;;;19.30;67.70;;;;;;10308067;28;20354;-65
2024/03/20 17:28:53;;;;;;;5.50;2.53;;;19.20;67.80;;;;;;10301831;28;20317;-65
2024/03/20 17:33:57;;;;;;;4.95;3.00;;;19.00;68.20;;;;;;10300078;28;20243;-64
2024/03/20 17:38:59;;;;;;;6.53;3.00;;;18.90;68.40;;;;;;10302447;28;20249;-64
2024/03/20 17:44:02;;;;;;;5.45;2.95;;;18.80;68.90;;;;;;10305127;28;20310;-65
2024/03/20 17:49:06;;;;;;;4.88;2.92;;;18.70;69.30;;;;;;10301359;28;20881;-65
2024/03/20 17:54:10;;;;;;;4.30;2.95;;;18.50;69.40;;;;;;10298261;28;21854;-65
2024/03/20 17:59:13;;;;;;;4.85;2.90;;;18.40;69.70;;;;;;10292378;28;20965;-64
2024/03/20 18:04:16;;;;;;;5.15;3.28;;;18.20;69.70;;;;;;10297544;28;20281;-64
2024/03/20 18:09:19;;;;;;;9.38;3.78;;;18.10;69.90;;;;;;10295526;28;20678;-64
2024/03/20 18:14:22;;;;;;;7.15;3.45;;;18.10;70.10;;;;;;10297877;28;20232;-63
2024/03/20 18:19:26;;;;;;;5.32;3.17;;;17.90;70.40;;;;;;10294799;28;20238;-65
2024/03/20 18:24:29;;;;;;;6.53;3.90;;;17.80;70.60;;;;;;10292917;28;20468;-63
2024/03/20 18:29:32;;;;;;;6.45;3.35;;;17.70;71.40;;;;;;10298446;28;20256;-65
2024/03/20 18:34:37;;;;;;;5.13;3.80;;;17.70;70.90;;;;;;10291902;28;20237;-66
2024/03/20 18:39:40;;;;;;;6.07;4.15;;;17.60;70.70;;;;;;10295361;28;20220;-66
2024/03/20 18:44:43;;;;;;;6.13;3.85;;;17.40;70.90;;;;;;10296954;28;20313;-67
2024/03/20 18:49:46;;;;;;;4.45;3.70;;;17.30;71.00;;;;;;10295831;28;20220;-67
2024/03/20 18:54:50;;;;;;;4.88;3.88;;;17.20;71.30;;;;;;10296876;28;20232;-66
2024/03/20 18:59:53;;;;;;;7.15;4.30;;;17.10;71.50;;;;;;10296586;28;20262;-66
2024/03/20 19:04:57;;;;;;;7.57;4.40;;;16.90;71.60;;;;;;10299184;28;20240;-66
2024/03/20 19:09:59;;;;;;;6.30;4.78;;;16.90;71.90;;;;;;10299013;28;20266;-67
2024/03/20 19:15:02;;;;;;;6.25;4.60;;;16.70;71.70;;;;;;10301118;28;20318;-66
2024/03/20 19:20:11;;;;;;;7.57;5.00;;;16.60;71.90;;;;;;10309691;28;20245;-67
2024/03/20 19:25:14;;;;;;;8.05;5.63;;;16.60;72.00;;;;;;10299526;28;20317;-66
2024/03/20 19:30:17;;;;;;;10.43;6.55;;;16.50;71.90;;;;;;10301277;28;21595;-68
2024/03/20 19:35:21;;;;;;;10.80;6.32;;;16.40;71.90;;;;;;10296342;28;20323;-66
2024/03/20 19:40:24;;;;;;;10.18;7.03;;;16.40;71.80;;;;;;10296582;28;21724;-67
2024/03/20 19:45:26;;;;;;;8.98;5.70;;;16.40;71.80;;;;;;10296326;28;20315;-67
2024/03/20 19:50:30;;;;;;;9.55;6.15;;;16.30;72.20;;;;;;10300770;28;20228;-67
2024/03/20 19:55:34;;;;;;;10.02;6.63;;;16.20;72.50;;;;;;10302695;28;20236;-67
2024/03/20 20:00:36;;;;;;;9.85;6.22;;;16.10;72.50;;;;;;10302863;28;21227;-67
2024/03/20 20:05:40;;;;;;;10.43;6.57;;;16.00;72.50;;;;;;10301995;28;20315;-67
2024/03/20 20:10:43;;;;;;;9.20;7.50;;;15.90;72.80;;;;;;10302648;28;20212;-66
2024/03/20 20:15:48;;;;;;;13.35;9.13;;;15.90;73.10;;;;;;10303216;28;20651;-66
2024/03/20 20:20:52;;;;;;;12.55;7.70;;;15.80;72.70;;;;;;10300182;28;20197;-66
2024/03/20 20:25:56;;;;;;;11.63;7.35;;;15.70;73.00;;;;;;10300248;28;20867;-66
2024/03/20 20:30:59;;;;;;;10.30;7.30;;;15.70;73.30;;;;;;10301029;28;20212;-67
2024/03/20 20:36:03;;;;;;;12.13;7.22;;;15.50;73.20;;;;;;10301490;28;21323;-67
2024/03/20 20:41:05;;;;;;;11.85;7.35;;;15.50;73.40;;;;;;10306214;28;20254;-67
2024/03/20 20:46:10;;;;;;;8.68;6.88;;;15.40;73.60;;;;;;10303836;28;21456;-66
2024/03/20 20:51:14;;;;;;;9.65;6.80;;;15.30;73.70;;;;;;10300306;28;20204;-67
2024/03/20 20:56:17;;;;;;;12.05;8.10;;;15.30;74.00;;;;;;10304020;28;20221;-68
2024/03/20 21:01:20;;;;;;;10.57;7.57;;;15.20;74.00;;;;;;10303354;28;20940;-68
2024/03/20 21:22:26;;;;;;;10.55;7.75;;;14.90;74.50;;;;;;10291095;28;20236;-68
2024/03/20 21:27:29;;;;;;;13.10;9.23;;;14.80;74.80;;;;;;10297021;28;20224;-68
2024/03/20 21:32:32;;;;;;;13.18;9.10;;;14.80;74.60;;;;;;10294584;28;20259;-67
2024/03/20 21:37:36;;;;;;;12.05;9.13;;;14.70;75.50;;;;;;10296631;28;20769;-67
2024/03/20 21:42:38;;;;;;;13.50;9.50;;;14.60;74.50;;;;;;10281215;28;20241;-68
2024/03/20 21:47:41;;;;;;;14.02;10.05;;;14.50;75.00;;;;;;10286771;28;21607;-66
2024/03/20 21:52:46;;;;;;;13.43;9.93;;;14.50;75.90;;;;;;10290301;28;20717;-68
2024/03/20 21:57:49;;;;;;;13.25;9.98;;;14.40;75.20;;;;;;10303500;28;21333;-68
2024/03/20 22:02:52;;;;;;;15.68;10.63;;;14.40;75.70;;;;;;10289033;28;20229;-67
2024/03/20 22:07:56;;;;;;;12.60;10.45;;;14.40;75.20;;;;;;10282302;28;20588;-67
2024/03/20 22:12:59;;;;;;;15.77;11.25;;;14.30;75.00;;;;;;10275595;28;20216;-68
2024/03/20 22:18:01;;;;;;;12.85;10.38;;;14.40;75.30;;;;;;10270399;28;20208;-67
2024/03/20 22:23:06;;;;;;;15.25;10.73;;;14.40;75.10;;;;;;10275009;28;20225;-67
2024/03/20 22:28:11;;;;;;;14.98;11.18;;;14.40;75.60;;;;;;10275840;28;20586;-67
2024/03/20 22:33:14;;;;;;;16.25;11.63;;;14.40;75.70;;;;;;10275083;28;20788;-68
2024/03/20 22:38:18;;;;;;;15.10;11.35;;;14.30;75.70;;;;;;10274040;28;20272;-68
2024/03/20 22:43:20;;;;;;;16.77;12.10;;;14.30;75.80;;;;;;10291546;28;20244;-67
2024/03/20 22:48:23;;;;;;;13.27;10.82;;;14.20;75.90;;;;;;10304680;28;21617;-67
2024/03/20 22:53:27;;;;;;;16.85;11.70;;;14.20;76.40;;;;;;10306796;28;20232;-67
2024/03/20 22:58:30;;;;;;;14.00;11.77;;;14.20;76.20;;;;;;10305474;28;21301;-67
2024/03/20 23:03:33;;;;;;;15.85;11.43;;;14.20;76.50;;;;;;10303472;28;20635;-67
2024/03/20 23:08:37;;;;;;;17.05;12.13;;;14.10;76.60;;;;;;10301182;28;20265;-66
2024/03/20 23:13:40;;;;;;;18.95;12.30;;;14.10;76.80;;;;;;10304117;28;20215;-66
2024/03/20 23:18:42;;;;;;;26.08;12.25;;;14.10;76.90;;;;;;10300100;28;20664;-67
2024/03/20 23:23:47;;;;;;;20.25;11.38;;;14.00;76.90;;;;;;10301784;28;20259;-68
2024/03/20 23:28:49;;;;;;;15.63;10.23;;;14.00;78.00;;;;;;10301029;28;20298;-67
2024/03/20 23:33:52;;;;;;;15.02;10.65;;;13.90;76.80;;;;;;10297704;28;20309;-67
2024/03/20 23:38:56;;;;;;;15.18;11.02;;;13.90;77.00;;;;;;10302933;28;20646;-66
2024/03/20 23:43:59;;;;;;;15.60;10.77;;;13.90;76.90;;;;;;10305868;28;20274;-67
2024/03/20 23:49:02;;;;;;;15.27;10.27;;;13.90;76.80;;;;;;10299927;28;20574;-67
2024/03/20 23:54:06;;;;;;;17.55;11.15;;;13.80;77.60;;;;;;10294509;28;20256;-68
2024/03/20 23:59:08;;;;;;;17.55;11.07;;;13.80;77.30;;;;;;10301429;28;20231;-67
